sensor_id;sensor_type;location;lat;lon;timestamp;P1;durP1;ratioP1;P2;durP2;ratioP2
6561;SDS011;3314;50.890;4.722;2024-02-16T00:01:36;9.4;;;1.8;;
6561;SDS011;3314;50.890;4.722;2024-02-16T00:03:36;9.9;;;1.6;;
6561;SDS011;3314;50.890;4.722;2024-02-16T00:05:36;7.7;;;1.5;;
6561;SDS011;3314;50.890;4.722;2024-02-16T00:07:35;9.3;;;1.6;;
6561;SDS011;3314;50.890;4.722;2024-02-16T00:09:35;6.7;;;1.4;;
6561;SDS011;3314;50.890;4.722;2024-02-16T00:11:35;7.6;;;1.7;;
6561;SDS011;3314;50.890;4.722;2024-02-16T00:13:34;8.6;;;1.6;;
6561;SDS011;3314;50.890;4.722;2024-02-16T00:15:35;7.5;;;1.7;;
6561;SDS011;3314;50.890;4.722;2024-02-16T00:17:34;7.6;;;2.2;;
6561;SDS011;3314;50.890;4.722;2024-02-16T00:19:34;7.9;;;1.8;;
6561;SDS011;3314;50.890;4.722;2024-02-16T00:21:34;7.3;;;1.5;;
6561;SDS011;3314;50.890;4.722;2024-02-16T00:23:36;7.8;;;1.8;;
6561;SDS011;3314;50.890;4.722;2024-02-16T00:25:36;9.1;;;2.1;;
6561;SDS011;3314;50.890;4.722;2024-02-16T00:27:35;7.5;;;1.7;;
6561;SDS011;3314;50.890;4.722;2024-02-16T00:29:38;7.7;;;1.6;;
6561;SDS011;3314;50.890;4.722;2024-02-16T00:31:38;8.0;;;1.6;;
6561;SDS011;3314;50.890;4.722;2024-02-16T00:33:38;7.1;;;1.5;;
6561;SDS011;3314;50.890;4.722;2024-02-16T00:35:38;9.3;;;1.8;;
6561;SDS011;3314;50.890;4.722;2024-02-16T00:37:38;8.8;;;1.8;;
6561;SDS011;3314;50.890;4.722;2024-02-16T00:39:38;7.8;;;1.4;;
6561;SDS011;3314;50.890;4.722;2024-02-16T00:41:38;7.8;;;1.6;;
6561;SDS011;3314;50.890;4.722;2024-02-16T00:43:37;8.4;;;2.0;;
6561;SDS011;3314;50.890;4.722;2024-02-16T00:47:37;7.5;;;1.4;;
6561;SDS011;3314;50.890;4.722;2024-02-16T00:49:37;8.2;;;1.6;;
6561;SDS011;3314;50.890;4.722;2024-02-16T00:51:36;9.1;;;1.5;;
6561;SDS011;3314;50.890;4.722;2024-02-16T00:53:36;7.9;;;1.9;;
6561;SDS011;3314;50.890;4.722;2024-02-16T00:55:36;8.6;;;1.3;;
6561;SDS011;3314;50.890;4.722;2024-02-16T00:57:35;7.5;;;1.7;;
6561;SDS011;3314;50.890;4.722;2024-02-16T00:59:35;8.3;;;1.8;;
6561;SDS011;3314;50.890;4.722;2024-02-16T01:01:35;7.4;;;1.4;;
6561;SDS011;3314;50.890;4.722;2024-02-16T01:03:35;8.6;;;1.6;;
6561;SDS011;3314;50.890;4.722;2024-02-16T01:05:36;7.7;;;1.6;;
6561;SDS011;3314;50.890;4.722;2024-02-16T01:07:35;6.9;;;1.5;;
6561;SDS011;3314;50.890;4.722;2024-02-16T01:09:35;7.8;;;1.4;;
6561;SDS011;3314;50.890;4.722;2024-02-16T01:11:35;10.2;;;1.8;;
6561;SDS011;3314;50.890;4.722;2024-02-16T01:13:34;6.9;;;1.5;;
6561;SDS011;3314;50.890;4.722;2024-02-16T01:15:34;9.5;;;1.4;;
6561;SDS011;3314;50.890;4.722;2024-02-16T01:17:34;6.9;;;1.6;;
6561;SDS011;3314;50.890;4.722;2024-02-16T01:19:34;9.5;;;1.7;;
6561;SDS011;3314;50.890;4.722;2024-02-16T01:21:34;9.2;;;1.9;;
6561;SDS011;3314;50.890;4.722;2024-02-16T01:23:33;11.5;;;1.7;;
6561;SDS011;3314;50.890;4.722;2024-02-16T01:25:33;8.0;;;1.8;;
6561;SDS011;3314;50.890;4.722;2024-02-16T01:27:33;10.3;;;1.9;;
6561;SDS011;3314;50.890;4.722;2024-02-16T01:29:33;7.2;;;1.5;;
6561;SDS011;3314;50.890;4.722;2024-02-16T01:31:32;7.3;;;1.5;;
6561;SDS011;3314;50.890;4.722;2024-02-16T01:33:35;8.5;;;1.8;;
6561;SDS011;3314;50.890;4.722;2024-02-16T01:35:24;7.8;;;1.6;;
6561;SDS011;3314;50.890;4.722;2024-02-16T01:37:24;7.3;;;1.6;;
6561;SDS011;3314;50.890;4.722;2024-02-16T01:39:24;7.6;;;1.5;;
6561;SDS011;3314;50.890;4.722;2024-02-16T01:41:23;10.1;;;1.7;;
6561;SDS011;3314;50.890;4.722;2024-02-16T01:43:23;9.9;;;2.0;;
6561;SDS011;3314;50.890;4.722;2024-02-16T01:45:23;8.0;;;2.0;;
6561;SDS011;3314;50.890;4.722;2024-02-16T01:47:23;6.5;;;1.4;;
6561;SDS011;3314;50.890;4.722;2024-02-16T01:49:22;8.8;;;1.6;;
6561;SDS011;3314;50.890;4.722;2024-02-16T01:51:22;7.6;;;1.5;;
6561;SDS011;3314;50.890;4.722;2024-02-16T01:53:22;9.5;;;1.9;;
6561;SDS011;3314;50.890;4.722;2024-02-16T01:55:22;7.8;;;2.0;;
6561;SDS011;3314;50.890;4.722;2024-02-16T01:57:22;10.5;;;2.0;;
6561;SDS011;3314;50.890;4.722;2024-02-16T01:59:22;8.0;;;1.8;;
6561;SDS011;3314;50.890;4.722;2024-02-16T02:01:23;7.6;;;1.6;;
6561;SDS011;3314;50.890;4.722;2024-02-16T02:03:23;8.3;;;2.5;;
6561;SDS011;3314;50.890;4.722;2024-02-16T02:05:23;8.9;;;1.9;;
6561;SDS011;3314;50.890;4.722;2024-02-16T02:07:25;9.4;;;1.9;;
6561;SDS011;3314;50.890;4.722;2024-02-16T02:09:25;9.9;;;1.6;;
6561;SDS011;3314;50.890;4.722;2024-02-16T02:11:24;7.8;;;1.6;;
6561;SDS011;3314;50.890;4.722;2024-02-16T02:13:24;9.1;;;1.9;;
6561;SDS011;3314;50.890;4.722;2024-02-16T02:15:24;12.9;;;2.2;;
6561;SDS011;3314;50.890;4.722;2024-02-16T02:17:24;6.7;;;1.4;;
6561;SDS011;3314;50.890;4.722;2024-02-16T02:19:24;9.1;;;1.9;;
6561;SDS011;3314;50.890;4.722;2024-02-16T02:21:24;10.3;;;1.9;;
6561;SDS011;3314;50.890;4.722;2024-02-16T02:23:23;7.5;;;1.6;;
6561;SDS011;3314;50.890;4.722;2024-02-16T02:25:23;9.1;;;1.8;;
6561;SDS011;3314;50.890;4.722;2024-02-16T02:27:22;8.6;;;1.9;;
6561;SDS011;3314;50.890;4.722;2024-02-16T02:29:22;10.8;;;1.8;;
6561;SDS011;3314;50.890;4.722;2024-02-16T02:31:22;6.6;;;1.7;;
6561;SDS011;3314;50.890;4.722;2024-02-16T02:33:22;11.1;;;1.7;;
6561;SDS011;3314;50.890;4.722;2024-02-16T02:35:21;8.3;;;1.8;;
6561;SDS011;3314;50.890;4.722;2024-02-16T02:37:24;9.3;;;2.1;;
6561;SDS011;3314;50.890;4.722;2024-02-16T02:39:24;8.0;;;2.0;;
6561;SDS011;3314;50.890;4.722;2024-02-16T02:41:24;8.6;;;1.8;;
6561;SDS011;3314;50.890;4.722;2024-02-16T02:43:23;9.2;;;1.4;;
6561;SDS011;3314;50.890;4.722;2024-02-16T02:45:23;10.0;;;1.9;;
6561;SDS011;3314;50.890;4.722;2024-02-16T02:47:23;8.6;;;1.7;;
6561;SDS011;3314;50.890;4.722;2024-02-16T02:49:22;7.8;;;1.9;;
6561;SDS011;3314;50.890;4.722;2024-02-16T02:51:22;7.7;;;1.6;;
6561;SDS011;3314;50.890;4.722;2024-02-16T02:53:22;8.6;;;1.8;;
6561;SDS011;3314;50.890;4.722;2024-02-16T02:55:22;7.8;;;1.8;;
6561;SDS011;3314;50.890;4.722;2024-02-16T02:57:21;8.1;;;1.8;;
6561;SDS011;3314;50.890;4.722;2024-02-16T02:59:21;8.4;;;2.2;;
6561;SDS011;3314;50.890;4.722;2024-02-16T03:01:25;8.0;;;1.8;;
6561;SDS011;3314;50.890;4.722;2024-02-16T03:03:14;6.9;;;1.3;;
6561;SDS011;3314;50.890;4.722;2024-02-16T03:05:13;9.1;;;2.1;;
6561;SDS011;3314;50.890;4.722;2024-02-16T03:07:14;8.6;;;1.7;;
6561;SDS011;3314;50.890;4.722;2024-02-16T03:09:14;11.1;;;1.7;;
6561;SDS011;3314;50.890;4.722;2024-02-16T03:11:14;8.8;;;1.6;;
6561;SDS011;3314;50.890;4.722;2024-02-16T03:13:14;7.6;;;1.6;;
6561;SDS011;3314;50.890;4.722;2024-02-16T03:15:15;8.5;;;1.5;;
6561;SDS011;3314;50.890;4.722;2024-02-16T03:17:14;8.6;;;1.7;;
6561;SDS011;3314;50.890;4.722;2024-02-16T03:19:14;8.3;;;2.0;;
6561;SDS011;3314;50.890;4.722;2024-02-16T03:21:17;9.1;;;1.5;;
6561;SDS011;3314;50.890;4.722;2024-02-16T03:23:16;8.0;;;2.1;;
6561;SDS011;3314;50.890;4.722;2024-02-16T03:25:16;9.3;;;1.5;;
6561;SDS011;3314;50.890;4.722;2024-02-16T03:27:15;6.8;;;1.4;;
6561;SDS011;3314;50.890;4.722;2024-02-16T03:29:15;8.5;;;2.1;;
6561;SDS011;3314;50.890;4.722;2024-02-16T03:31:17;8.8;;;1.8;;
6561;SDS011;3314;50.890;4.722;2024-02-16T03:33:17;10.2;;;2.2;;
6561;SDS011;3314;50.890;4.722;2024-02-16T03:35:16;8.0;;;1.7;;
6561;SDS011;3314;50.890;4.722;2024-02-16T03:37:16;8.0;;;1.7;;
6561;SDS011;3314;50.890;4.722;2024-02-16T03:39:43;8.1;;;1.6;;
6561;SDS011;3314;50.890;4.722;2024-02-16T03:41:11;12.1;;;1.9;;
6561;SDS011;3314;50.890;4.722;2024-02-16T03:43:12;7.4;;;1.7;;
6561;SDS011;3314;50.890;4.722;2024-02-16T03:45:12;9.4;;;1.8;;
6561;SDS011;3314;50.890;4.722;2024-02-16T03:47:12;7.6;;;1.9;;
6561;SDS011;3314;50.890;4.722;2024-02-16T03:49:12;7.0;;;1.5;;
6561;SDS011;3314;50.890;4.722;2024-02-16T03:51:11;9.3;;;2.0;;
6561;SDS011;3314;50.890;4.722;2024-02-16T03:53:11;10.5;;;1.8;;
6561;SDS011;3314;50.890;4.722;2024-02-16T03:55:11;10.4;;;2.1;;
6561;SDS011;3314;50.890;4.722;2024-02-16T03:57:12;8.5;;;1.5;;
6561;SDS011;3314;50.890;4.722;2024-02-16T03:59:12;8.4;;;1.5;;
6561;SDS011;3314;50.890;4.722;2024-02-16T04:01:12;9.7;;;2.0;;
6561;SDS011;3314;50.890;4.722;2024-02-16T04:03:12;9.3;;;1.7;;
6561;SDS011;3314;50.890;4.722;2024-02-16T04:05:11;10.7;;;1.9;;
6561;SDS011;3314;50.890;4.722;2024-02-16T04:07:11;9.1;;;1.8;;
6561;SDS011;3314;50.890;4.722;2024-02-16T04:09:12;8.2;;;1.9;;
6561;SDS011;3314;50.890;4.722;2024-02-16T04:11:12;8.4;;;1.8;;
6561;SDS011;3314;50.890;4.722;2024-02-16T04:13:12;10.7;;;2.1;;
6561;SDS011;3314;50.890;4.722;2024-02-16T04:15:12;10.2;;;2.2;;
6561;SDS011;3314;50.890;4.722;2024-02-16T04:17:11;9.7;;;3.0;;
6561;SDS011;3314;50.890;4.722;2024-02-16T04:19:11;11.1;;;2.2;;
6561;SDS011;3314;50.890;4.722;2024-02-16T04:21:11;7.7;;;1.9;;
6561;SDS011;3314;50.890;4.722;2024-02-16T04:23:10;8.5;;;1.7;;
6561;SDS011;3314;50.890;4.722;2024-02-16T04:25:10;11.3;;;2.1;;
6561;SDS011;3314;50.890;4.722;2024-02-16T04:27:10;10.1;;;2.1;;
6561;SDS011;3314;50.890;4.722;2024-02-16T04:29:09;6.8;;;1.5;;
6561;SDS011;3314;50.890;4.722;2024-02-16T04:31:09;8.6;;;2.2;;
6561;SDS011;3314;50.890;4.722;2024-02-16T04:33:09;12.6;;;2.0;;
6561;SDS011;3314;50.890;4.722;2024-02-16T04:35:12;8.2;;;1.8;;
6561;SDS011;3314;50.890;4.722;2024-02-16T04:37:12;13.0;;;2.4;;
6561;SDS011;3314;50.890;4.722;2024-02-16T04:39:01;12.0;;;2.0;;
6561;SDS011;3314;50.890;4.722;2024-02-16T04:41:01;10.9;;;1.9;;
6561;SDS011;3314;50.890;4.722;2024-02-16T04:43:01;12.2;;;1.9;;
6561;SDS011;3314;50.890;4.722;2024-02-16T04:45:01;10.4;;;1.9;;
6561;SDS011;3314;50.890;4.722;2024-02-16T04:47:01;8.5;;;2.2;;
6561;SDS011;3314;50.890;4.722;2024-02-16T04:49:00;9.8;;;2.0;;
6561;SDS011;3314;50.890;4.722;2024-02-16T04:51:00;8.4;;;1.8;;
6561;SDS011;3314;50.890;4.722;2024-02-16T04:53:01;9.3;;;1.9;;
6561;SDS011;3314;50.890;4.722;2024-02-16T04:55:01;10.1;;;2.2;;
6561;SDS011;3314;50.890;4.722;2024-02-16T04:57:01;8.5;;;1.7;;
6561;SDS011;3314;50.890;4.722;2024-02-16T04:59:00;11.8;;;2.2;;
6561;SDS011;3314;50.890;4.722;2024-02-16T05:01:00;7.8;;;2.1;;
6561;SDS011;3314;50.890;4.722;2024-02-16T05:03:03;10.6;;;2.2;;
6561;SDS011;3314;50.890;4.722;2024-02-16T05:05:04;9.6;;;1.9;;
6561;SDS011;3314;50.890;4.722;2024-02-16T05:07:06;7.7;;;2.2;;
6561;SDS011;3314;50.890;4.722;2024-02-16T05:09:08;10.1;;;1.9;;
6561;SDS011;3314;50.890;4.722;2024-02-16T05:11:02;12.9;;;1.9;;
6561;SDS011;3314;50.890;4.722;2024-02-16T05:13:05;9.8;;;1.9;;
6561;SDS011;3314;50.890;4.722;2024-02-16T05:15:08;9.5;;;2.0;;
6561;SDS011;3314;50.890;4.722;2024-02-16T05:16:57;8.3;;;2.2;;
6561;SDS011;3314;50.890;4.722;2024-02-16T05:18:59;8.1;;;2.4;;
6561;SDS011;3314;50.890;4.722;2024-02-16T05:21:01;9.5;;;1.7;;
6561;SDS011;3314;50.890;4.722;2024-02-16T05:23:01;8.0;;;1.8;;
6561;SDS011;3314;50.890;4.722;2024-02-16T05:25:04;9.1;;;2.3;;
6561;SDS011;3314;50.890;4.722;2024-02-16T05:27:04;8.9;;;2.0;;
6561;SDS011;3314;50.890;4.722;2024-02-16T05:29:04;10.0;;;2.2;;
6561;SDS011;3314;50.890;4.722;2024-02-16T05:31:12;9.2;;;2.2;;
6561;SDS011;3314;50.890;4.722;2024-02-16T05:33:00;8.9;;;2.0;;
6561;SDS011;3314;50.890;4.722;2024-02-16T05:35:00;12.2;;;2.1;;
6561;SDS011;3314;50.890;4.722;2024-02-16T05:37:02;10.4;;;2.5;;
6561;SDS011;3314;50.890;4.722;2024-02-16T05:39:10;9.1;;;1.8;;
6561;SDS011;3314;50.890;4.722;2024-02-16T05:41:00;9.9;;;1.9;;
6561;SDS011;3314;50.890;4.722;2024-02-16T05:43:00;12.8;;;2.3;;
6561;SDS011;3314;50.890;4.722;2024-02-16T05:44:59;9.8;;;2.1;;
6561;SDS011;3314;50.890;4.722;2024-02-16T05:46:59;11.2;;;2.3;;
6561;SDS011;3314;50.890;4.722;2024-02-16T05:48:59;10.0;;;2.0;;
6561;SDS011;3314;50.890;4.722;2024-02-16T05:51:01;10.1;;;1.9;;
6561;SDS011;3314;50.890;4.722;2024-02-16T05:53:00;12.2;;;2.2;;
6561;SDS011;3314;50.890;4.722;2024-02-16T05:55:00;10.6;;;2.0;;
6561;SDS011;3314;50.890;4.722;2024-02-16T05:57:00;7.3;;;1.8;;
6561;SDS011;3314;50.890;4.722;2024-02-16T05:58:59;9.4;;;2.1;;
6561;SDS011;3314;50.890;4.722;2024-02-16T06:01:01;10.1;;;2.1;;
6561;SDS011;3314;50.890;4.722;2024-02-16T06:03:01;10.6;;;2.3;;
6561;SDS011;3314;50.890;4.722;2024-02-16T06:04:51;13.7;;;2.5;;
6561;SDS011;3314;50.890;4.722;2024-02-16T06:06:51;9.9;;;2.5;;
6561;SDS011;3314;50.890;4.722;2024-02-16T06:08:51;8.4;;;2.1;;
6561;SDS011;3314;50.890;4.722;2024-02-16T06:10:54;9.0;;;2.3;;
6561;SDS011;3314;50.890;4.722;2024-02-16T06:12:53;9.8;;;2.4;;
6561;SDS011;3314;50.890;4.722;2024-02-16T06:14:54;8.2;;;1.9;;
6561;SDS011;3314;50.890;4.722;2024-02-16T06:16:54;9.2;;;2.3;;
6561;SDS011;3314;50.890;4.722;2024-02-16T06:18:53;8.6;;;2.3;;
6561;SDS011;3314;50.890;4.722;2024-02-16T06:20:53;10.5;;;1.7;;
6561;SDS011;3314;50.890;4.722;2024-02-16T06:22:52;9.1;;;2.3;;
6561;SDS011;3314;50.890;4.722;2024-02-16T06:24:52;11.1;;;2.3;;
6561;SDS011;3314;50.890;4.722;2024-02-16T06:26:52;13.3;;;2.5;;
6561;SDS011;3314;50.890;4.722;2024-02-16T06:28:52;8.2;;;2.4;;
6561;SDS011;3314;50.890;4.722;2024-02-16T06:30:51;8.9;;;2.0;;
6561;SDS011;3314;50.890;4.722;2024-02-16T06:32:52;8.0;;;2.1;;
6561;SDS011;3314;50.890;4.722;2024-02-16T06:34:52;8.1;;;2.1;;
6561;SDS011;3314;50.890;4.722;2024-02-16T06:36:51;7.6;;;2.1;;
6561;SDS011;3314;50.890;4.722;2024-02-16T06:38:52;9.0;;;2.4;;
6561;SDS011;3314;50.890;4.722;2024-02-16T06:40:52;10.1;;;2.2;;
6561;SDS011;3314;50.890;4.722;2024-02-16T06:42:51;10.7;;;2.2;;
6561;SDS011;3314;50.890;4.722;2024-02-16T06:44:51;9.9;;;2.1;;
6561;SDS011;3314;50.890;4.722;2024-02-16T06:46:51;8.2;;;2.4;;
6561;SDS011;3314;50.890;4.722;2024-02-16T06:48:52;13.3;;;2.1;;
6561;SDS011;3314;50.890;4.722;2024-02-16T06:50:52;10.0;;;2.3;;
6561;SDS011;3314;50.890;4.722;2024-02-16T06:52:52;10.5;;;2.3;;
6561;SDS011;3314;50.890;4.722;2024-02-16T06:54:52;8.1;;;1.9;;
6561;SDS011;3314;50.890;4.722;2024-02-16T06:56:56;10.6;;;2.4;;
6561;SDS011;3314;50.890;4.722;2024-02-16T06:58:48;11.3;;;2.3;;
6561;SDS011;3314;50.890;4.722;2024-02-16T07:00:52;9.0;;;2.1;;
6561;SDS011;3314;50.890;4.722;2024-02-16T07:02:56;14.4;;;2.5;;
6561;SDS011;3314;50.890;4.722;2024-02-16T07:04:46;7.3;;;2.0;;
6561;SDS011;3314;50.890;4.722;2024-02-16T07:06:46;9.3;;;2.1;;
6561;SDS011;3314;50.890;4.722;2024-02-16T07:08:46;8.4;;;1.8;;
6561;SDS011;3314;50.890;4.722;2024-02-16T07:10:47;10.9;;;2.6;;
6561;SDS011;3314;50.890;4.722;2024-02-16T07:12:47;10.8;;;2.4;;
6561;SDS011;3314;50.890;4.722;2024-02-16T07:14:50;10.2;;;2.4;;
6561;SDS011;3314;50.890;4.722;2024-02-16T07:16:50;9.0;;;2.3;;
6561;SDS011;3314;50.890;4.722;2024-02-16T07:18:49;10.5;;;2.6;;
6561;SDS011;3314;50.890;4.722;2024-02-16T07:20:49;11.6;;;2.6;;
6561;SDS011;3314;50.890;4.722;2024-02-16T07:22:51;15.2;;;2.6;;
6561;SDS011;3314;50.890;4.722;2024-02-16T07:24:51;9.3;;;2.3;;
6561;SDS011;3314;50.890;4.722;2024-02-16T07:26:51;9.7;;;2.0;;
6561;SDS011;3314;50.890;4.722;2024-02-16T07:28:50;10.6;;;2.3;;
6561;SDS011;3314;50.890;4.722;2024-02-16T07:30:50;10.9;;;2.6;;
6561;SDS011;3314;50.890;4.722;2024-02-16T07:32:52;8.7;;;2.6;;
6561;SDS011;3314;50.890;4.722;2024-02-16T07:34:40;11.3;;;2.5;;
6561;SDS011;3314;50.890;4.722;2024-02-16T07:36:44;9.6;;;2.4;;
6561;SDS011;3314;50.890;4.722;2024-02-16T07:38:44;8.9;;;2.3;;
6561;SDS011;3314;50.890;4.722;2024-02-16T07:40:46;13.8;;;2.7;;
6561;SDS011;3314;50.890;4.722;2024-02-16T07:42:46;9.8;;;2.1;;
6561;SDS011;3314;50.890;4.722;2024-02-16T07:44:45;8.1;;;2.4;;
6561;SDS011;3314;50.890;4.722;2024-02-16T07:46:46;9.8;;;2.4;;
6561;SDS011;3314;50.890;4.722;2024-02-16T07:48:46;7.9;;;1.9;;
6561;SDS011;3314;50.890;4.722;2024-02-16T07:50:45;9.3;;;2.2;;
6561;SDS011;3314;50.890;4.722;2024-02-16T07:52:45;10.5;;;2.4;;
6561;SDS011;3314;50.890;4.722;2024-02-16T07:54:45;11.3;;;2.5;;
6561;SDS011;3314;50.890;4.722;2024-02-16T07:56:49;11.5;;;2.9;;
6561;SDS011;3314;50.890;4.722;2024-02-16T07:58:41;11.4;;;2.7;;
6561;SDS011;3314;50.890;4.722;2024-02-16T08:00:42;9.6;;;3.0;;
6561;SDS011;3314;50.890;4.722;2024-02-16T08:02:47;9.0;;;2.1;;
6561;SDS011;3314;50.890;4.722;2024-02-16T08:04:46;10.3;;;2.3;;
6561;SDS011;3314;50.890;4.722;2024-02-16T08:06:46;7.8;;;1.9;;
6561;SDS011;3314;50.890;4.722;2024-02-16T08:08:46;9.7;;;2.3;;
6561;SDS011;3314;50.890;4.722;2024-02-16T08:10:46;13.0;;;1.8;;
6561;SDS011;3314;50.890;4.722;2024-02-16T08:12:47;11.0;;;2.2;;
6561;SDS011;3314;50.890;4.722;2024-02-16T08:14:36;9.9;;;2.4;;
6561;SDS011;3314;50.890;4.722;2024-02-16T08:16:37;8.7;;;2.8;;
6561;SDS011;3314;50.890;4.722;2024-02-16T08:18:37;11.0;;;2.2;;
6561;SDS011;3314;50.890;4.722;2024-02-16T08:20:37;10.4;;;2.3;;
6561;SDS011;3314;50.890;4.722;2024-02-16T08:22:36;9.7;;;2.4;;
6561;SDS011;3314;50.890;4.722;2024-02-16T08:24:37;9.3;;;2.9;;
6561;SDS011;3314;50.890;4.722;2024-02-16T08:26:37;9.7;;;3.0;;
6561;SDS011;3314;50.890;4.722;2024-02-16T08:28:36;13.7;;;2.6;;
6561;SDS011;3314;50.890;4.722;2024-02-16T08:30:41;12.0;;;2.7;;
6561;SDS011;3314;50.890;4.722;2024-02-16T08:32:41;8.3;;;2.5;;
6561;SDS011;3314;50.890;4.722;2024-02-16T08:34:40;10.7;;;2.6;;
6561;SDS011;3314;50.890;4.722;2024-02-16T08:36:43;11.0;;;3.4;;
6561;SDS011;3314;50.890;4.722;2024-02-16T08:38:43;9.3;;;2.5;;
6561;SDS011;3314;50.890;4.722;2024-02-16T08:40:42;11.4;;;2.9;;
6561;SDS011;3314;50.890;4.722;2024-02-16T08:42:43;9.6;;;2.9;;
6561;SDS011;3314;50.890;4.722;2024-02-16T08:44:32;8.9;;;2.6;;
6561;SDS011;3314;50.890;4.722;2024-02-16T08:46:32;8.8;;;2.6;;
6561;SDS011;3314;50.890;4.722;2024-02-16T08:48:32;11.0;;;3.5;;
6561;SDS011;3314;50.890;4.722;2024-02-16T08:50:32;11.2;;;2.9;;
6561;SDS011;3314;50.890;4.722;2024-02-16T08:52:31;10.8;;;2.8;;
6561;SDS011;3314;50.890;4.722;2024-02-16T08:54:31;13.0;;;3.3;;
6561;SDS011;3314;50.890;4.722;2024-02-16T08:56:31;10.6;;;2.6;;
6561;SDS011;3314;50.890;4.722;2024-02-16T08:58:30;12.5;;;3.5;;
6561;SDS011;3314;50.890;4.722;2024-02-16T09:00:33;9.1;;;2.8;;
6561;SDS011;3314;50.890;4.722;2024-02-16T09:02:33;12.1;;;3.4;;
6561;SDS011;3314;50.890;4.722;2024-02-16T09:04:33;11.7;;;3.5;;
6561;SDS011;3314;50.890;4.722;2024-02-16T09:06:35;10.8;;;3.9;;
6561;SDS011;3314;50.890;4.722;2024-02-16T09:08:35;11.8;;;3.5;;
6561;SDS011;3314;50.890;4.722;2024-02-16T09:10:35;10.5;;;3.0;;
6561;SDS011;3314;50.890;4.722;2024-02-16T09:12:35;12.2;;;3.2;;
6561;SDS011;3314;50.890;4.722;2024-02-16T09:14:38;9.4;;;2.5;;
6561;SDS011;3314;50.890;4.722;2024-02-16T09:16:37;11.1;;;3.1;;
6561;SDS011;3314;50.890;4.722;2024-02-16T09:18:38;11.9;;;2.9;;
6561;SDS011;3314;50.890;4.722;2024-02-16T09:20:38;13.6;;;3.6;;
6561;SDS011;3314;50.890;4.722;2024-02-16T09:22:39;8.0;;;2.9;;
6561;SDS011;3314;50.890;4.722;2024-02-16T09:24:29;11.0;;;3.0;;
6561;SDS011;3314;50.890;4.722;2024-02-16T09:26:30;8.2;;;2.5;;
6561;SDS011;3314;50.890;4.722;2024-02-16T09:28:31;12.6;;;3.0;;
6561;SDS011;3314;50.890;4.722;2024-02-16T09:30:32;9.1;;;3.1;;
6561;SDS011;3314;50.890;4.722;2024-02-16T09:32:33;9.1;;;3.1;;
6561;SDS011;3314;50.890;4.722;2024-02-16T09:34:32;10.3;;;2.7;;
6561;SDS011;3314;50.890;4.722;2024-02-16T09:36:32;12.4;;;2.7;;
6561;SDS011;3314;50.890;4.722;2024-02-16T09:38:32;11.0;;;3.0;;
6561;SDS011;3314;50.890;4.722;2024-02-16T09:40:32;9.0;;;3.1;;
6561;SDS011;3314;50.890;4.722;2024-02-16T09:42:32;9.0;;;2.4;;
6561;SDS011;3314;50.890;4.722;2024-02-16T09:44:32;14.3;;;3.8;;
6561;SDS011;3314;50.890;4.722;2024-02-16T09:46:34;12.9;;;3.1;;
6561;SDS011;3314;50.890;4.722;2024-02-16T09:48:39;15.3;;;3.4;;
6561;SDS011;3314;50.890;4.722;2024-02-16T09:50:28;13.6;;;3.1;;
6561;SDS011;3314;50.890;4.722;2024-02-16T09:52:28;12.7;;;2.9;;
6561;SDS011;3314;50.890;4.722;2024-02-16T09:54:31;12.2;;;3.1;;
6561;SDS011;3314;50.890;4.722;2024-02-16T09:56:31;12.0;;;3.4;;
6561;SDS011;3314;50.890;4.722;2024-02-16T09:58:31;11.1;;;3.3;;
6561;SDS011;3314;50.890;4.722;2024-02-16T10:00:32;10.1;;;2.7;;
6561;SDS011;3314;50.890;4.722;2024-02-16T10:02:39;10.4;;;3.1;;
6561;SDS011;3314;50.890;4.722;2024-02-16T10:04:27;11.0;;;3.1;;
6561;SDS011;3314;50.890;4.722;2024-02-16T10:06:26;11.2;;;3.6;;
6561;SDS011;3314;50.890;4.722;2024-02-16T10:08:27;14.0;;;3.3;;
6561;SDS011;3314;50.890;4.722;2024-02-16T10:10:27;12.2;;;3.5;;
6561;SDS011;3314;50.890;4.722;2024-02-16T10:12:27;15.2;;;3.4;;
6561;SDS011;3314;50.890;4.722;2024-02-16T10:14:27;16.1;;;3.6;;
6561;SDS011;3314;50.890;4.722;2024-02-16T10:16:28;15.0;;;3.9;;
6561;SDS011;3314;50.890;4.722;2024-02-16T10:18:28;15.8;;;3.5;;
6561;SDS011;3314;50.890;4.722;2024-02-16T10:20:28;14.8;;;3.8;;
6561;SDS011;3314;50.890;4.722;2024-02-16T10:22:29;12.4;;;4.7;;
6561;SDS011;3314;50.890;4.722;2024-02-16T10:24:28;12.2;;;3.7;;
6561;SDS011;3314;50.890;4.722;2024-02-16T10:26:29;13.2;;;3.6;;
6561;SDS011;3314;50.890;4.722;2024-02-16T10:28:30;10.9;;;3.4;;
6561;SDS011;3314;50.890;4.722;2024-02-16T10:30:20;10.6;;;3.7;;
6561;SDS011;3314;50.890;4.722;2024-02-16T10:32:21;12.4;;;3.4;;
6561;SDS011;3314;50.890;4.722;2024-02-16T10:34:21;14.5;;;3.6;;
6561;SDS011;3314;50.890;4.722;2024-02-16T10:36:22;15.5;;;3.3;;
6561;SDS011;3314;50.890;4.722;2024-02-16T10:38:24;14.7;;;4.5;;
6561;SDS011;3314;50.890;4.722;2024-02-16T10:40:24;12.9;;;3.9;;
6561;SDS011;3314;50.890;4.722;2024-02-16T10:42:24;14.3;;;3.9;;
6561;SDS011;3314;50.890;4.722;2024-02-16T10:44:25;11.3;;;3.5;;
6561;SDS011;3314;50.890;4.722;2024-02-16T10:46:27;12.5;;;3.9;;
6561;SDS011;3314;50.890;4.722;2024-02-16T10:48:26;16.7;;;5.2;;
6561;SDS011;3314;50.890;4.722;2024-02-16T10:50:26;12.0;;;4.8;;
6561;SDS011;3314;50.890;4.722;2024-02-16T10:52:26;13.8;;;3.8;;
6561;SDS011;3314;50.890;4.722;2024-02-16T10:54:27;11.5;;;4.2;;
6561;SDS011;3314;50.890;4.722;2024-02-16T10:56:26;14.6;;;4.0;;
6561;SDS011;3314;50.890;4.722;2024-02-16T10:58:26;13.2;;;4.8;;
6561;SDS011;3314;50.890;4.722;2024-02-16T11:00:28;19.0;;;4.9;;
6561;SDS011;3314;50.890;4.722;2024-02-16T11:02:21;15.4;;;4.6;;
6561;SDS011;3314;50.890;4.722;2024-02-16T11:04:21;13.8;;;4.2;;
6561;SDS011;3314;50.890;4.722;2024-02-16T11:06:21;12.4;;;4.6;;
6561;SDS011;3314;50.890;4.722;2024-02-16T11:08:23;17.2;;;5.0;;
6561;SDS011;3314;50.890;4.722;2024-02-16T11:10:22;15.5;;;4.5;;
6561;SDS011;3314;50.890;4.722;2024-02-16T11:12:22;17.6;;;4.8;;
6561;SDS011;3314;50.890;4.722;2024-02-16T11:14:22;14.4;;;5.6;;
6561;SDS011;3314;50.890;4.722;2024-02-16T11:16:22;15.4;;;4.4;;
6561;SDS011;3314;50.890;4.722;2024-02-16T11:18:22;12.0;;;4.4;;
6561;SDS011;3314;50.890;4.722;2024-02-16T11:20:23;16.5;;;5.2;;
6561;SDS011;3314;50.890;4.722;2024-02-16T11:22:26;20.6;;;4.8;;
6561;SDS011;3314;50.890;4.722;2024-02-16T11:24:14;15.4;;;5.0;;
6561;SDS011;3314;50.890;4.722;2024-02-16T11:26:16;18.1;;;4.9;;
6561;SDS011;3314;50.890;4.722;2024-02-16T11:28:16;16.7;;;4.6;;
6561;SDS011;3314;50.890;4.722;2024-02-16T11:30:17;12.1;;;4.1;;
6561;SDS011;3314;50.890;4.722;2024-02-16T11:32:18;16.0;;;4.5;;
6561;SDS011;3314;50.890;4.722;2024-02-16T11:34:22;14.3;;;4.6;;
6561;SDS011;3314;50.890;4.722;2024-02-16T11:36:24;13.4;;;4.4;;
6561;SDS011;3314;50.890;4.722;2024-02-16T11:38:12;19.4;;;4.8;;
6561;SDS011;3314;50.890;4.722;2024-02-16T11:40:12;14.7;;;5.0;;
6561;SDS011;3314;50.890;4.722;2024-02-16T11:42:12;15.4;;;4.6;;
6561;SDS011;3314;50.890;4.722;2024-02-16T11:44:14;13.4;;;4.7;;
6561;SDS011;3314;50.890;4.722;2024-02-16T11:46:14;15.7;;;5.4;;
6561;SDS011;3314;50.890;4.722;2024-02-16T11:48:19;14.3;;;4.0;;
6561;SDS011;3314;50.890;4.722;2024-02-16T11:50:19;14.9;;;5.5;;
6561;SDS011;3314;50.890;4.722;2024-02-16T11:52:19;13.3;;;4.5;;
6561;SDS011;3314;50.890;4.722;2024-02-16T11:54:19;14.4;;;4.5;;
6561;SDS011;3314;50.890;4.722;2024-02-16T11:56:22;19.9;;;5.0;;
6561;SDS011;3314;50.890;4.722;2024-02-16T11:58:10;12.3;;;4.3;;
6561;SDS011;3314;50.890;4.722;2024-02-16T12:00:15;17.0;;;4.7;;
6561;SDS011;3314;50.890;4.722;2024-02-16T12:02:23;18.8;;;5.0;;
6561;SDS011;3314;50.890;4.722;2024-02-16T12:04:19;10.8;;;4.4;;
6561;SDS011;3314;50.890;4.722;2024-02-16T12:06:20;14.6;;;5.3;;
6561;SDS011;3314;50.890;4.722;2024-02-16T12:08:11;15.4;;;4.9;;
6561;SDS011;3314;50.890;4.722;2024-02-16T12:10:12;14.3;;;5.3;;
6561;SDS011;3314;50.890;4.722;2024-02-16T12:12:12;11.4;;;4.8;;
6561;SDS011;3314;50.890;4.722;2024-02-16T12:14:12;17.0;;;5.1;;
6561;SDS011;3314;50.890;4.722;2024-02-16T12:16:12;16.7;;;5.3;;
6561;SDS011;3314;50.890;4.722;2024-02-16T12:18:19;13.3;;;5.2;;
6561;SDS011;3314;50.890;4.722;2024-02-16T12:20:11;14.6;;;5.0;;
6561;SDS011;3314;50.890;4.722;2024-02-16T12:22:11;13.4;;;4.9;;
6561;SDS011;3314;50.890;4.722;2024-02-16T12:24:11;13.8;;;5.4;;
6561;SDS011;3314;50.890;4.722;2024-02-16T12:26:10;14.2;;;4.4;;
6561;SDS011;3314;50.890;4.722;2024-02-16T12:28:10;19.0;;;4.6;;
6561;SDS011;3314;50.890;4.722;2024-02-16T12:30:13;11.2;;;4.3;;
6561;SDS011;3314;50.890;4.722;2024-02-16T12:32:16;11.7;;;4.7;;
6561;SDS011;3314;50.890;4.722;2024-02-16T12:34:08;13.3;;;3.8;;
6561;SDS011;3314;50.890;4.722;2024-02-16T12:36:07;10.8;;;4.2;;
6561;SDS011;3314;50.890;4.722;2024-02-16T12:38:07;16.3;;;4.0;;
6561;SDS011;3314;50.890;4.722;2024-02-16T12:40:08;11.7;;;4.7;;
6561;SDS011;3314;50.890;4.722;2024-02-16T12:42:08;12.3;;;4.1;;
6561;SDS011;3314;50.890;4.722;2024-02-16T12:44:08;9.8;;;3.4;;